Time;durP1;ratioP1;P1;durP2;ratioP2;P2;SDS_P1;SDS_P2;PMS_P1;PMS_P2;Temp;Humidity;BMP_temperature;BMP_pressure;BME280_temperature;BME280_humidity;BME280_pressure;Samples;Min_cycle;Max_cycle;Signal;HPM_P1;HPM_P2
2023/04/15 00:02:54;;;;;;;2.80;2.40;;;;;;;9.65;75.33;100930.31;6105671;28;20235;-74
2023/04/15 00:06:15;;;;;;;2.37;1.47;;;;;;;9.68;75.32;100924.75;6139352;28;20623;-77
2023/04/15 00:09:36;;;;;;;2.10;1.97;;;;;;;9.56;75.92;100931.28;6159892;28;20231;-75
2023/04/15 00:12:58;;;;;;;2.60;2.40;;;;;;;9.54;76.14;100928.78;6157920;28;20238;-77
2023/04/15 00:16:18;;;;;;;2.30;2.20;;;;;;;9.55;76.23;100919.91;6149167;28;20229;-76
2023/04/15 00:19:41;;;;;;;2.33;2.23;;;;;;;9.53;76.57;100916.59;6149468;28;20258;-75
2023/04/15 00:23:03;;;;;;;3.00;2.40;;;;;;;9.54;76.75;100917.44;6157926;28;20227;-74
2023/04/15 00:26:24;;;;;;;2.23;2.03;;;;;;;9.57;76.87;100915.31;6154772;28;20233;-75
2023/04/15 00:29:45;;;;;;;2.23;2.03;;;;;;;9.58;76.73;100918.75;6158808;28;20593;-75
2023/04/15 00:33:07;;;;;;;3.00;2.73;;;;;;;9.62;76.89;100916.63;6150948;28;20400;-74
2023/04/15 00:36:30;;;;;;;2.30;2.13;;;;;;;9.62;77.25;100920.09;6170251;28;20238;-75
2023/04/15 00:39:51;;;;;;;2.37;2.17;;;;;;;9.59;77.17;100918.59;6160721;28;20230;-74
2023/04/15 00:43:12;;;;;;;1.83;1.73;;;;;;;9.46;77.87;100912.97;6162857;28;20545;-74
2023/04/15 00:46:38;;;;;;;1.80;1.70;;;;;;;9.50;78.38;100910.81;6151641;28;20226;-75
2023/04/15 00:49:59;;;;;;;2.63;2.43;;;;;;;9.50;78.24;100905.56;6154554;28;20522;-74
2023/04/15 00:53:21;;;;;;;3.80;2.67;;;;;;;9.48;78.43;100911.00;6171082;28;20223;-75
2023/04/15 00:56:42;;;;;;;2.03;1.83;;;;;;;9.36;79.15;100911.44;6142975;28;20237;-74
2023/04/15 01:00:04;;;;;;;2.33;2.23;;;;;;;9.41;79.38;100917.88;6156769;28;20317;-74
2023/04/15 01:03:25;;;;;;;2.20;2.10;;;;;;;9.43;79.69;100920.38;6155846;28;20333;-74
2023/04/15 01:06:46;;;;;;;1.70;1.60;;;;;;;9.46;79.34;100917.41;6141119;28;20522;-74
2023/04/15 01:10:09;;;;;;;1.73;1.63;;;;;;;9.42;79.83;100918.72;6139285;28;20230;-73
2023/04/15 01:13:33;;;;;;;2.63;2.20;;;;;;;9.43;79.92;100910.66;6152127;28;20235;-74
2023/04/15 01:16:55;;;;;;;2.03;1.73;;;;;;;9.40;80.17;100908.34;6162800;28;20281;-74
2023/04/15 01:20:16;;;;;;;2.17;2.07;;;;;;;9.38;80.49;100909.47;6141257;28;20313;-74
2023/04/15 01:23:39;;;;;;;2.30;1.90;;;;;;;9.41;80.50;100907.34;6157037;28;20866;-75
2023/04/15 01:27:03;;;;;;;2.17;1.73;;;;;;;9.39;80.53;100903.22;6154986;28;20230;-74
2023/04/15 01:30:24;;;;;;;2.90;2.17;;;;;;;9.30;81.27;100902.34;6145400;28;22614;-75
2023/04/15 01:33:46;;;;;;;1.73;1.63;;;;;;;9.31;81.57;100895.28;6162997;28;20227;-74
2023/04/15 01:37:08;;;;;;;2.73;2.53;;;;;;;9.33;81.40;100895.94;6111904;28;20591;-73
2023/04/15 01:40:29;;;;;;;1.80;1.70;;;;;;;9.34;81.36;100882.63;6143415;28;20231;-74
2023/04/15 01:43:53;;;;;;;4.13;2.27;;;;;;;9.31;82.29;100880.31;6141433;28;20234;-73
2023/04/15 01:47:14;;;;;;;2.23;2.00;;;;;;;9.38;82.09;100880.50;6162001;28;20237;-74
2023/04/15 01:50:37;;;;;;;2.30;2.13;;;;;;;9.33;82.33;100877.50;6131432;28;20254;-73
2023/04/15 01:53:58;;;;;;;2.47;2.27;;;;;;;9.32;81.96;100874.06;6158658;28;20443;-74
2023/04/15 01:57:18;;;;;;;2.73;2.53;;;;;;;9.31;82.43;100874.22;6154761;28;20238;-73
2023/04/15 02:00:41;;;;;;;2.40;2.20;;;;;;;9.36;82.34;100872.75;6138773;28;20237;-74
2023/04/15 02:04:02;;;;;;;2.63;2.43;;;;;;;9.34;82.19;100863.34;6160641;28;20231;-74
2023/04/15 02:07:27;;;;;;;2.17;1.97;;;;;;;9.41;82.24;100865.19;6145402;28;22879;-74
2023/04/15 02:10:48;;;;;;;1.70;1.60;;;;;;;9.27;83.31;100864.00;6145047;28;20234;-73
2023/04/15 02:14:09;;;;;;;2.77;2.33;;;;;;;9.25;83.63;100860.72;6140689;28;20239;-72
2023/04/15 02:17:34;;;;;;;4.50;2.80;;;;;;;9.35;83.03;100859.75;6143347;28;20609;-73
2023/04/15 02:20:57;;;;;;;2.67;2.43;;;;;;;9.36;82.60;100859.59;6145887;28;20325;-74
2023/04/15 02:24:17;;;;;;;2.53;2.33;;;;;;;9.17;83.70;100865.94;6145958;28;20227;-74
2023/04/15 02:27:38;;;;;;;7.90;2.30;;;;;;;9.23;83.95;100873.22;6160242;28;20226;-74
2023/04/15 02:31:00;;;;;;;3.03;2.73;;;;;;;9.30;83.88;100864.66;6145480;28;20276;-74
2023/04/15 02:34:22;;;;;;;2.20;1.97;;;;;;;9.33;83.36;100865.16;6157474;28;20239;-75
2023/04/15 02:37:44;;;;;;;3.20;2.90;;;;;;;9.26;83.87;100870.25;6156218;28;20226;-73
2023/04/15 02:41:07;;;;;;;3.17;2.77;;;;;;;9.13;85.15;100874.31;6135811;28;20226;-74
2023/04/15 02:44:30;;;;;;;3.00;2.80;;;;;;;9.03;85.49;100869.19;6166482;28;20582;-74
2023/04/15 02:47:53;;;;;;;3.43;2.93;;;;;;;9.14;85.27;100861.00;6155045;28;20231;-74
2023/04/15 02:51:18;;;;;;;3.57;2.87;;;;;;;9.17;85.57;100863.31;6139769;28;20263;-73
2023/04/15 02:54:39;;;;;;;4.10;3.57;;;;;;;9.27;85.29;100857.91;6139861;28;20246;-75
2023/04/15 02:58:00;;;;;;;3.43;3.13;;;;;;;9.27;85.18;100868.44;6140015;28;20234;-73
2023/04/15 03:01:21;;;;;;;3.37;3.07;;;;;;;9.34;84.98;100868.63;6142747;28;20604;-75
2023/04/15 03:04:42;;;;;;;4.47;4.07;;;;;;;9.19;85.71;100858.72;6141666;28;20234;-76
2023/04/15 03:08:04;;;;;;;4.53;4.13;;;;;;;9.14;86.23;100874.16;6155651;28;20235;-75
2023/04/15 03:11:25;;;;;;;4.33;3.93;;;;;;;9.23;85.75;100856.59;6148401;28;20307;-74
2023/04/15 03:14:46;;;;;;;3.47;3.17;;;;;;;9.22;86.08;100861.03;6149176;28;20534;-73
2023/04/15 03:18:07;;;;;;;4.47;3.97;;;;;;;9.25;85.56;100865.97;6142259;28;20492;-75
2023/04/15 03:21:28;;;;;;;5.33;4.40;;;;;;;9.27;85.51;100861.34;6167577;28;20342;-74
2023/04/15 03:24:51;;;;;;;5.07;4.40;;;;;;;9.27;85.78;100860.53;6154422;28;20239;-75
2023/04/15 03:28:12;;;;;;;7.03;4.50;;;;;;;9.21;86.51;100855.91;6152320;28;20243;-74
2023/04/15 03:31:32;;;;;;;4.23;3.83;;;;;;;9.26;86.43;100858.91;6142472;28;20243;-74
2023/04/15 03:34:53;;;;;;;6.97;5.57;;;;;;;9.20;86.78;100855.09;6152069;28;20231;-73
2023/04/15 03:38:14;;;;;;;5.20;4.57;;;;;;;9.24;86.27;100859.06;6131444;28;20227;-73
2023/04/15 03:41:36;;;;;;;5.43;4.00;;;;;;;9.26;86.41;100858.91;6137482;28;20234;-72
2023/04/15 03:44:57;;;;;;;5.10;4.50;;;;;;;9.30;86.81;100862.03;6153903;28;20238;-74
2023/04/15 03:48:18;;;;;;;6.63;5.17;;;;;;;9.18;87.63;100858.88;6156380;28;20392;-75
2023/04/15 03:51:39;;;;;;;6.87;5.17;;;;;;;9.16;87.54;100850.31;6141724;28;20237;-74
2023/04/15 03:55:00;;;;;;;5.73;4.17;;;;;;;9.06;88.92;100854.84;6147658;28;20511;-75
2023/04/15 03:58:22;;;;;;;5.80;5.20;;;;;;;9.08;88.94;100856.34;6136704;28;21656;-74
2023/04/15 04:01:43;;;;;;;4.97;4.37;;;;;;;9.03;89.47;100857.84;6155855;28;20231;-73
2023/04/15 04:05:05;;;;;;;6.10;5.17;;;;;;;9.14;89.60;100861.00;6143115;28;20226;-73
2023/04/15 04:08:26;;;;;;;7.13;5.40;;;;;;;9.27;89.00;100850.81;6153745;28;20223;-74
2023/04/15 04:11:47;;;;;;;6.97;5.00;;;;;;;9.30;88.36;100862.03;6153709;28;20250;-74
2023/04/15 04:15:11;;;;;;;5.97;4.33;;;;;;;9.27;88.83;100860.53;6146198;28;20223;-74
2023/04/15 04:18:32;;;;;;;5.93;4.13;;;;;;;9.33;88.93;100857.25;6137616;28;20586;-74
2023/04/15 04:21:53;;;;;;;5.53;4.33;;;;;;;9.42;88.13;100863.41;6156375;28;20230;-74
2023/04/15 04:25:14;;;;;;;8.00;5.10;;;;;;;9.39;87.77;100853.19;6152475;28;20558;-74
2023/04/15 04:28:35;;;;;;;4.37;3.97;;;;;;;9.38;87.79;100862.06;6157461;28;20550;-74
2023/04/15 04:31:57;;;;;;;4.77;4.43;;;;;;;9.36;88.07;100864.84;6153615;28;20471;-74
2023/04/15 04:35:18;;;;;;;5.83;5.23;;;;;;;9.38;88.28;100867.31;6144112;28;20227;-74
2023/04/15 04:38:39;;;;;;;5.57;4.70;;;;;;;9.39;88.49;100866.34;6165555;28;20255;-73
2023/04/15 04:42:00;;;;;;;6.10;5.50;;;;;;;9.28;88.44;100864.81;6123735;28;20234;-74
2023/04/15 04:45:20;;;;;;;7.63;5.73;;;;;;;9.24;89.08;100871.41;6145786;28;20230;-74
2023/04/15 04:48:43;;;;;;;7.40;6.40;;;;;;;9.18;89.90;100867.59;6114026;28;20234;-74
2023/04/15 04:52:04;;;;;;;8.97;6.47;;;;;;;9.16;90.41;100868.72;6145876;28;20238;-74
2023/04/15 04:55:24;;;;;;;6.93;6.23;;;;;;;9.17;91.28;100865.94;6148103;28;20238;-74
2023/04/15 04:58:45;;;;;;;11.73;6.33;;;;;;;9.19;91.28;100865.78;6160935;28;20230;-74
2023/04/15 05:02:06;;;;;;;9.07;6.80;;;;;;;9.18;91.98;100867.59;6136343;28;20677;-74
2023/04/15 05:05:28;;;;;;;8.13;7.37;;;;;;;9.16;92.33;100861.66;6130245;28;20234;-74
2023/04/15 05:08:49;;;;;;;9.00;8.10;;;;;;;9.20;92.31;100865.63;6171443;28;20647;-74
2023/04/15 05:12:13;;;;;;;10.63;9.03;;;;;;;9.24;91.93;100864.34;6157260;28;20498;-74
2023/04/15 05:15:35;;;;;;;8.30;7.50;;;;;;;9.26;92.28;100870.25;6140988;28;20247;-74
2023/04/15 05:18:56;;;;;;;12.40;9.30;;;;;;;9.25;92.65;100865.16;6167058;28;20223;-73
2023/04/15 05:22:18;;;;;;;11.37;9.63;;;;;;;9.31;92.56;100867.13;6142735;28;20234;-75
2023/04/15 05:25:39;;;;;;;11.33;8.77;;;;;;;9.36;92.61;100874.56;6139062;28;20241;-74
2023/04/15 05:29:00;;;;;;;12.90;8.10;;;;;;;9.33;92.60;100867.81;6166338;28;20321;-74
2023/04/15 05:32:21;;;;;;;10.13;9.10;;;;;;;9.43;92.20;100871.13;6154896;28;20222;-73
2023/04/15 05:35:41;;;;;;;12.23;9.60;;;;;;;9.38;92.31;100876.06;6132770;28;20659;-74
2023/04/15 05:39:04;;;;;;;11.00;7.37;;;;;;;9.34;92.52;100876.53;6165398;28;20239;-74
2023/04/15 05:42:24;;;;;;;10.80;9.67;;;;;;;9.36;92.45;100874.56;6144848;28;20234;-74
2023/04/15 05:45:45;;;;;;;10.17;9.17;;;;;;;9.34;92.68;100863.34;6133131;28;20227;-73
2023/04/15 05:49:06;;;;;;;7.70;6.50;;;;;;;9.35;92.99;100871.09;6142485;28;20243;-73
2023/04/15 05:52:27;;;;;;;11.97;9.20;;;;;;;9.43;92.87;100880.84;6160461;28;20238;-73
2023/04/15 05:55:49;;;;;;;11.07;9.43;;;;;;;9.31;93.10;100874.22;6143427;28;20281;-74
2023/04/15 05:59:10;;;;;;;12.57;9.80;;;;;;;9.36;93.34;100883.28;6130800;28;20617;-74
2023/04/15 06:02:31;;;;;;;9.40;8.40;;;;;;;9.42;92.97;100892.38;6135955;28;20234;-74
2023/04/15 06:05:52;;;;;;;10.37;9.00;;;;;;;9.48;93.16;100889.09;6149794;28;20242;-73
2023/04/15 06:09:12;;;;;;;11.10;9.17;;;;;;;9.46;92.70;100898.97;6156092;28;20235;-73
2023/04/15 06:12:35;;;;;;;9.83;8.70;;;;;;;9.52;92.91;100898.31;6158914;28;20325;-73
2023/04/15 06:15:55;;;;;;;10.47;8.73;;;;;;;9.52;92.73;100895.69;6148987;28;20241;-73
2023/04/15 06:19:17;;;;;;;10.20;8.17;;;;;;;9.55;93.07;100901.47;6146491;28;20231;-74
2023/04/15 06:22:38;;;;;;;10.40;8.10;;;;;;;9.57;92.80;100902.13;6157083;28;20230;-74
2023/04/15 06:25:59;;;;;;;10.20;7.70;;;;;;;9.56;92.63;100904.91;6133996;28;20230;-74
2023/04/15 06:29:22;;;;;;;12.33;10.47;;;;;;;9.54;93.25;100910.34;6151485;28;20242;-74
2023/04/15 06:32:43;;;;;;;12.70;8.97;;;;;;;9.52;93.04;100912.31;6135430;28;20636;-73
2023/04/15 06:36:04;;;;;;;10.93;9.53;;;;;;;9.54;93.16;100920.88;6152059;28;20833;-74
2023/04/15 06:39:24;;;;;;;13.53;10.27;;;;;;;9.57;92.57;100915.31;6152164;28;20253;-75
2023/04/15 06:42:45;;;;;;;11.30;10.10;;;;;;;9.65;93.03;100917.16;6145725;28;20233;-74
2023/04/15 06:46:07;;;;;;;11.17;9.80;;;;;;;9.62;92.74;100921.91;6145974;28;20510;-74
2023/04/15 06:49:28;;;;;;;15.93;10.53;;;;;;;9.71;92.53;100916.50;6152357;28;20287;-74
2023/04/15 06:52:49;;;;;;;12.90;10.47;;;;;;;9.77;92.00;100922.94;6157503;28;20250;-74
2023/04/15 06:56:10;;;;;;;14.23;12.83;;;;;;;9.79;92.09;100927.06;6140839;28;20320;-75
2023/04/15 06:59:31;;;;;;;11.27;9.13;;;;;;;9.78;91.56;100924.59;6150006;28;20274;-74
2023/04/15 07:02:54;;;;;;;11.60;9.37;;;;;;;10.11;93.90;100933.38;6145492;28;20615;-73
2023/04/15 07:06:15;;;;;;;12.87;9.60;;;;;;;10.11;90.72;100938.66;6137543;28;20238;-73
2023/04/15 07:09:36;;;;;;;17.17;11.40;;;;;;;10.00;91.43;100938.97;6161040;28;20238;-74
2023/04/15 07:12:57;;;;;;;14.47;11.30;;;;;;;9.85;91.16;100939.59;6154787;28;20224;-74
2023/04/15 07:16:18;;;;;;;17.03;13.63;;;;;;;9.86;90.79;100950.97;6137144;28;20235;-72
2023/04/15 07:19:40;;;;;;;12.77;9.70;;;;;;;9.90;90.75;100945.22;6148005;28;20235;-72
2023/04/15 07:23:01;;;;;;;15.07;12.20;;;;;;;9.99;90.66;100942.59;6137181;28;20239;-72
2023/04/15 07:26:22;;;;;;;13.93;12.47;;;;;;;9.95;90.48;100940.25;6142293;28;20234;-72
2023/04/15 07:29:43;;;;;;;11.33;9.13;;;;;;;9.86;90.87;100950.97;6141934;28;20243;-73
2023/04/15 07:33:04;;;;;;;12.90;11.17;;;;;;;9.97;90.62;100947.19;6146320;28;20242;-72
2023/04/15 07:36:28;;;;;;;16.70;11.57;;;;;;;10.03;90.64;100952.66;6140914;28;20237;-72
2023/04/15 07:39:48;;;;;;;13.80;11.83;;;;;;;9.99;89.98;100958.41;6140648;28;20317;-73
2023/04/15 07:43:09;;;;;;;12.43;10.10;;;;;;;9.92;90.16;100961.72;6145543;28;20534;-74
2023/04/15 07:46:30;;;;;;;13.77;10.50;;;;;;;10.03;90.56;100965.00;6131086;28;20249;-73
2023/04/15 07:49:51;;;;;;;13.77;11.20;;;;;;;10.03;90.13;100962.38;6138274;28;20478;-73
2023/04/15 07:53:14;;;;;;;17.90;12.67;;;;;;;10.04;90.43;100966.66;6139417;28;20605;-73
2023/04/15 07:56:35;;;;;;;16.10;12.63;;;;;;;10.02;90.26;100974.72;6137932;28;20336;-73
2023/04/15 07:59:56;;;;;;;15.90;12.33;;;;;;;10.02;90.30;100972.09;6121210;28;20231;-73
2023/04/15 08:03:16;;;;;;;15.33;12.40;;;;;;;10.03;90.20;100972.91;6123127;28;20231;-72
2023/04/15 08:06:38;;;;;;;13.40;11.63;;;;;;;10.01;90.45;100981.00;6139946;28;20330;-72
2023/04/15 08:10:01;;;;;;;16.67;12.90;;;;;;;10.15;89.93;100979.56;6136633;28;20524;-74
2023/04/15 08:13:21;;;;;;;14.37;11.97;;;;;;;10.19;89.59;100979.06;6144986;28;20270;-73
2023/04/15 08:16:42;;;;;;;15.17;12.67;;;;;;;10.15;89.96;100983.03;6144520;28;20218;-72
2023/04/15 08:20:05;;;;;;;16.63;12.87;;;;;;;10.23;90.07;100990.13;6130391;28;21244;-73
2023/04/15 08:23:26;;;;;;;15.00;12.30;;;;;;;10.31;89.81;100995.44;6127136;28;20238;-72
2023/04/15 08:26:48;;;;;;;12.10;8.97;;;;;;;10.94;91.49;100992.94;6134654;28;20233;-73
2023/04/15 08:30:10;;;;;;;12.33;10.43;;;;;;;11.53;89.76;100982.88;6149630;28;20601;-73
2023/04/15 08:33:31;;;;;;;16.87;10.83;;;;;;;11.87;88.48;100989.72;6149065;28;20243;-72
2023/04/15 08:36:52;;;;;;;15.00;10.47;;;;;;;11.95;87.64;100990.50;6142854;28;20258;-74
2023/04/15 08:40:13;;;;;;;15.40;11.10;;;;;;;11.92;83.39;100995.31;6136560;28;20238;-74
2023/04/15 08:43:42;;;;;;;16.57;13.87;;;;;;;11.53;83.43;100990.81;6132931;28;20230;-73
2023/04/15 08:47:04;;;;;;;16.03;13.37;;;;;;;11.39;85.25;100993.34;6139829;28;20229;-73
2023/04/15 08:50:28;;;;;;;18.23;12.77;;;;;;;11.12;85.97;101002.50;6130590;28;20337;-74
2023/04/15 08:53:50;;;;;;;13.40;11.93;;;;;;;11.06;86.27;101001.38;6147912;28;20515;-75
2023/04/15 08:57:12;;;;;;;14.67;11.60;;;;;;;11.15;86.43;101007.44;6137249;28;20234;-74
2023/04/15 09:00:34;;;;;;;17.33;13.43;;;;;;;11.04;86.58;101005.16;6143982;28;20620;-74
2023/04/15 09:03:56;;;;;;;19.47;12.43;;;;;;;10.91;86.96;101008.31;6157653;28;20226;-73
2023/04/15 09:07:17;;;;;;;16.83;14.57;;;;;;;10.92;87.52;101023.97;6145228;28;20237;-73
2023/04/15 09:10:38;;;;;;;18.40;12.50;;;;;;;10.85;87.23;101020.34;6131388;28;20344;-73
2023/04/15 09:13:59;;;;;;;14.80;12.13;;;;;;;10.86;87.49;101029.09;6143471;28;20238;-74
2023/04/15 09:17:23;;;;;;;15.37;13.27;;;;;;;10.96;87.81;101024.47;6139954;28;20309;-72
2023/04/15 09:20:44;;;;;;;18.30;13.27;;;;;;;11.37;86.19;101029.69;6125244;28;20238;-72
2023/04/15 09:24:05;;;;;;;16.47;12.93;;;;;;;11.39;85.32;101031.19;6141419;28;20231;-74
2023/04/15 09:27:26;;;;;;;17.53;14.13;;;;;;;11.55;85.25;101025.00;6134066;28;20263;-73
2023/04/15 09:30:51;;;;;;;17.53;15.57;;;;;;;11.57;84.88;101025.66;6115181;28;20280;-73
2023/04/15 09:34:13;;;;;;;14.50;11.83;;;;;;;11.88;84.56;101009.88;6145190;28;20235;-74
2023/04/15 09:37:37;;;;;;;18.63;12.90;;;;;;;12.41;82.02;101021.50;6144332;28;20325;-74
2023/04/15 09:40:58;;;;;;;18.80;13.47;;;;;;;12.75;80.87;101021.06;6128030;28;20636;-73
2023/04/15 09:44:23;;;;;;;20.43;14.53;;;;;;;13.09;79.42;101021.44;6158554;28;20314;-74
2023/04/15 09:47:44;;;;;;;16.30;13.10;;;;;;;13.21;78.78;101020.00;6156986;28;20250;-73
2023/04/15 09:51:06;;;;;;;17.53;13.17;;;;;;;12.77;78.96;101022.53;6152728;28;20233;-73
2023/04/15 09:54:34;;;;;;;16.17;12.83;;;;;;;12.78;78.98;101034.78;6156752;28;20238;-74
2023/04/15 09:57:55;;;;;;;14.30;11.33;;;;;;;13.01;78.53;101032.09;6155026;28;20230;-73
2023/04/15 10:01:15;;;;;;;13.43;12.00;;;;;;;12.93;78.87;101032.97;6148459;28;20230;-74
2023/04/15 10:04:40;;;;;;;18.60;14.13;;;;;;;13.17;78.85;101036.44;6156306;28;20226;-74
2023/04/15 10:08:03;;;;;;;12.87;11.33;;;;;;;13.44;77.76;101042.97;6137987;28;20333;-73
2023/04/15 10:11:24;;;;;;;17.63;13.67;;;;;;;14.08;75.74;101037.88;6142247;28;20245;-74
2023/04/15 10:14:49;;;;;;;16.57;12.57;;;;;;;14.47;73.75;101032.19;6153473;28;20243;-70
2023/04/15 10:18:11;;;;;;;17.80;12.17;;;;;;;15.31;65.39;101033.94;6162313;28;20230;-76
2023/04/15 10:21:32;;;;;;;15.30;12.10;;;;;;;15.32;64.74;101038.25;6152956;28;20529;-75
2023/04/15 10:24:56;;;;;;;11.47;10.03;;;;;;;15.59;62.88;101043.78;6149775;28;20231;-76
2023/04/15 10:28:17;;;;;;;11.57;9.87;;;;;;;15.40;62.97;101038.06;6142630;28;20215;-76
2023/04/15 10:31:39;;;;;;;16.40;11.60;;;;;;;15.02;64.27;101044.75;6153675;28;20241;-77
2023/04/15 10:35:01;;;;;;;15.10;10.63;;;;;;;15.16;64.35;101049.16;6146832;28;20556;-77
2023/04/15 10:38:33;;;;;;;13.03;9.63;;;;;;;15.33;63.67;101045.22;6144609;28;20568;-76
2023/04/15 10:42:08;;;;;;;12.23;10.10;;;;;;;15.23;63.58;101049.22;6155322;28;20226;-76
2023/04/15 10:45:32;;;;;;;14.90;10.50;;;;;;;15.21;63.80;101052.06;6141301;28;20231;-77
2023/04/15 10:48:54;;;;;;;9.07;8.23;;;;;;;15.40;63.25;101050.56;6148316;28;21945;-78
2023/04/15 10:52:17;;;;;;;10.03;9.03;;;;;;;15.17;62.58;101055.28;6157533;28;20655;-76
2023/04/15 10:55:37;;;;;;;7.97;6.63;;;;;;;16.00;60.74;101044.56;6155021;28;20241;-76
2023/04/15 10:59:01;;;;;;;8.17;6.83;;;;;;;16.19;59.15;101047.50;6161378;28;20427;-76
2023/04/15 11:02:22;;;;;;;9.07;6.90;;;;;;;15.60;60.57;101048.88;6141520;28;20222;-77
2023/04/15 11:05:51;;;;;;;7.30;6.47;;;;;;;15.77;59.99;101051.22;6137945;28;20234;-76
2023/04/15 11:09:31;;;;;;;11.40;7.50;;;;;;;15.28;60.99;101055.59;6133260;28;20547;-75
2023/04/15 11:12:53;;;;;;;7.07;6.43;;;;;;;14.92;62.38;101053.06;6154532;28;20349;-76
2023/04/15 11:16:15;;;;;;;6.83;4.93;;;;;;;14.37;63.00;101067.84;6143006;28;20293;-75
2023/04/15 11:19:37;;;;;;;6.27;5.67;;;;;;;13.99;63.47;101069.84;6147666;28;20543;-76
2023/04/15 11:22:58;;;;;;;5.27;4.73;;;;;;;13.80;63.82;101072.22;6150986;28;20238;-75
2023/04/15 11:26:19;;;;;;;11.53;7.43;;;;;;;13.81;63.84;101071.22;6153711;28;20298;-75
2023/04/15 11:29:40;;;;;;;7.20;6.17;;;;;;;13.69;64.47;101079.66;6151016;28;20558;-75
2023/04/15 11:33:04;;;;;;;6.87;6.17;;;;;;;13.71;65.01;101083.94;6140697;28;20239;-76
2023/04/15 11:36:27;;;;;;;5.67;5.13;;;;;;;13.80;64.42;101090.78;6146942;28;20237;-77
2023/04/15 11:39:49;;;;;;;7.43;6.73;;;;;;;13.79;64.87;101097.09;6154045;28;20235;-76
2023/04/15 11:43:11;;;;;;;7.00;5.60;;;;;;;13.57;64.75;101101.50;6160743;28;20234;-77
2023/04/15 11:46:32;;;;;;;6.93;6.23;;;;;;;13.47;64.63;101104.41;6153430;28;20242;-77
2023/04/15 11:49:55;;;;;;;6.93;6.27;;;;;;;13.53;65.30;101102.88;6147752;28;20230;-75
2023/04/15 11:53:16;;;;;;;8.17;6.47;;;;;;;13.71;64.57;101106.00;6129304;28;20506;-74
2023/04/15 11:56:36;;;;;;;5.77;5.20;;;;;;;14.43;62.38;101098.19;6147775;28;20242;-74
2023/04/15 11:59:58;;;;;;;7.03;6.33;;;;;;;16.07;55.76;101105.81;6150349;28;20595;-70
2023/04/15 12:03:22;;;;;;;7.83;7.13;;;;;;;15.37;56.65;101098.81;6143748;28;20231;-70
2023/04/15 12:06:45;;;;;;;7.57;5.67;;;;;;;14.97;58.47;101103.00;6153624;28;20226;-69
2023/04/15 12:10:07;;;;;;;6.40;5.67;;;;;;;16.01;56.92;101110.13;6147550;28;20764;-72
2023/04/15 12:13:28;;;;;;;7.17;5.33;;;;;;;15.72;55.45;101113.03;6154177;28;20231;-71
2023/04/15 12:16:50;;;;;;;7.33;6.60;;;;;;;15.10;57.70;101118.25;6146899;28;20234;-73
2023/04/15 12:20:11;;;;;;;5.83;4.53;;;;;;;14.45;60.20;101132.53;6126068;28;20700;-72
2023/04/15 12:23:37;;;;;;;7.37;6.10;;;;;;;14.19;61.57;101131.16;6143461;28;20241;-72
2023/04/15 12:27:02;;;;;;;5.53;4.67;;;;;;;14.14;62.36;101138.00;6125939;28;20253;-72
2023/04/15 12:30:23;;;;;;;7.20;5.30;;;;;;;13.94;62.26;101145.72;6127892;28;20227;-72
2023/04/15 12:33:48;;;;;;;9.73;5.73;;;;;;;13.94;62.42;101156.34;6136556;28;20239;-72
2023/04/15 12:37:13;;;;;;;6.23;5.63;;;;;;;13.77;61.97;101145.06;6137597;28;20238;-71
2023/04/15 12:40:35;;;;;;;6.63;5.60;;;;;;;13.87;61.74;101164.19;6097033;28;20240;-72
2023/04/15 12:43:55;;;;;;;5.57;5.07;;;;;;;13.89;60.83;101162.19;6130662;28;20239;-72
2023/04/15 12:47:16;;;;;;;7.00;5.33;;;;;;;14.10;59.80;101164.09;6139352;28;20238;-73
2023/04/15 12:50:37;;;;;;;6.70;6.00;;;;;;;14.17;59.89;101170.34;6126333;28;20235;-73
2023/04/15 12:53:58;;;;;;;5.67;5.17;;;;;;;13.93;59.73;101175.91;6147273;28;20311;-72
2023/04/15 12:57:21;;;;;;;7.43;6.83;;;;;;;13.89;60.00;101170.13;6129308;28;20231;-72
2023/04/15 13:00:41;;;;;;;4.63;4.23;;;;;;;14.11;59.61;101172.88;6153649;28;20234;-72
2023/04/15 13:04:02;;;;;;;7.60;6.77;;;;;;;14.19;59.22;101170.97;6159844;28;20242;-72
2023/04/15 13:07:24;;;;;;;6.93;6.23;;;;;;;14.21;58.74;101176.94;6147624;28;20227;-72
2023/04/15 13:10:44;;;;;;;7.57;5.43;;;;;;;14.24;58.48;101176.53;6154128;28;20623;-73
2023/04/15 13:14:10;;;;;;;8.03;6.37;;;;;;;14.17;58.57;101185.44;6160928;28;20234;-72
2023/04/15 13:17:31;;;;;;;5.87;4.43;;;;;;;14.30;63.16;101185.59;6142161;28;20245;-73
2023/04/15 13:20:52;;;;;;;7.50;4.93;;;;;;;14.33;57.79;101191.38;6151583;28;20227;-72
2023/04/15 13:24:12;;;;;;;7.10;6.40;;;;;;;14.19;57.41;101188.75;6157452;28;20591;-73
2023/04/15 13:27:33;;;;;;;6.27;5.67;;;;;;;14.31;57.50;101196.03;6158546;28;20506;-72
2023/04/15 13:30:56;;;;;;;7.40;4.90;;;;;;;14.27;56.94;101196.59;6155914;28;20266;-73
2023/04/15 13:34:17;;;;;;;7.33;5.43;;;;;;;14.36;56.96;101200.81;6153286;28;20235;-73
2023/04/15 13:37:38;;;;;;;6.10;5.53;;;;;;;14.41;55.98;101197.63;6153286;28;20223;-73
2023/04/15 13:40:59;;;;;;;5.87;4.23;;;;;;;14.68;55.24;101195.09;6149224;28;20315;-73
2023/04/15 13:44:20;;;;;;;5.53;4.43;;;;;;;15.11;54.07;101205.81;6151498;28;20231;-73
2023/04/15 13:47:42;;;;;;;5.40;4.90;;;;;;;16.24;51.40;101194.22;6152751;28;20237;-72
2023/04/15 13:51:04;;;;;;;4.50;4.10;;;;;;;17.51;47.23;101192.53;6137597;28;20234;-73
2023/04/15 13:54:24;;;;;;;4.13;3.73;;;;;;;16.90;47.94;101203.34;6158825;28;20227;-72
2023/04/15 13:57:45;;;;;;;4.77;4.37;;;;;;;16.27;49.65;101196.47;6147670;28;20254;-73
2023/04/15 14:01:06;;;;;;;5.37;4.07;;;;;;;17.95;44.52;101205.28;6143050;28;20230;-71
2023/04/15 14:04:29;;;;;;;7.00;4.47;;;;;;;21.61;35.89;101206.97;6152067;28;20565;-71
2023/04/15 14:07:49;;;;;;;3.90;3.58;;;;;;;22.12;34.56;101216.25;6161917;28;20230;-72
2023/04/15 14:11:10;;;;;;;4.22;3.83;;;;;;;20.07;36.88;101213.75;6143879;28;20235;-71
2023/04/15 14:14:31;;;;;;;4.72;4.32;;;;;;;20.41;37.10;101214.22;6158399;28;20234;-72
2023/04/15 14:17:52;;;;;;;3.55;3.25;;;;;;;20.41;37.41;101230.31;6167530;28;20238;-71
2023/04/15 14:21:14;;;;;;;9.73;4.72;;;;;;;20.37;37.89;101221.91;6153592;28;22044;-72
2023/04/15 14:24:34;;;;;;;5.93;4.60;;;;;;;19.62;39.10;101223.88;6164157;28;20587;-72
2023/04/15 14:27:55;;;;;;;4.75;4.30;;;;;;;19.36;40.17;101232.06;6164251;28;20235;-74
2023/04/15 14:31:16;;;;;;;6.25;5.35;;;;;;;19.48;40.85;101238.34;6151745;28;20246;-73
2023/04/15 14:34:36;;;;;;;5.78;4.60;;;;;;;18.71;41.01;101242.91;6147458;28;20227;-72
2023/04/15 14:37:59;;;;;;;3.78;3.42;;;;;;;18.47;41.72;101240.91;6151468;28;20254;-73
2023/04/15 14:41:21;;;;;;;4.72;3.80;;;;;;;18.33;42.07;101244.66;6138246;28;20226;-73
2023/04/15 14:44:43;;;;;;;4.32;3.78;;;;;;;18.34;42.28;101256.97;6147837;28;20231;-73
2023/04/15 14:48:08;;;;;;;3.83;3.53;;;;;;;18.16;42.47;101259.50;6151487;28;20258;-73
2023/04/15 14:51:30;;;;;;;4.50;4.10;;;;;;;18.01;42.57;101259.72;6151809;28;20222;-73
2023/04/15 14:54:52;;;;;;;4.20;3.80;;;;;;;18.29;43.19;101260.31;6137307;28;20242;-72
2023/04/15 14:58:13;;;;;;;4.60;4.20;;;;;;;18.32;41.81;101270.53;6141003;28;20243;-73
2023/04/15 15:01:34;;;;;;;3.75;3.45;;;;;;;17.77;43.00;101270.00;6137433;28;20754;-73
2023/04/15 15:04:55;;;;;;;4.93;3.80;;;;;;;18.02;42.78;101269.38;6151672;28;20237;-73
2023/04/15 15:08:16;;;;;;;5.75;3.65;;;;;;;17.75;43.77;101272.06;6144033;28;20241;-73
2023/04/15 15:11:38;;;;;;;4.75;4.28;;;;;;;17.66;44.81;101286.63;6139874;28;20234;-69
2023/04/15 15:14:59;;;;;;;6.30;5.47;;;;;;;17.17;45.13;101289.56;6136949;28;20536;-70
2023/04/15 15:18:20;;;;;;;7.95;5.20;;;;;;;16.81;46.28;101289.03;6146407;28;20231;-73
2023/04/15 15:21:41;;;;;;;4.63;3.88;;;;;;;16.59;46.92;101297.09;6152122;28;20236;-71
2023/04/15 15:25:02;;;;;;;6.38;4.80;;;;;;;16.54;46.88;101302.19;6160225;28;20449;-70
2023/04/15 15:28:24;;;;;;;5.57;5.07;;;;;;;16.60;46.77;101297.91;6122971;28;20240;-72
2023/04/15 15:31:45;;;;;;;5.63;3.60;;;;;;;17.04;46.09;101305.53;6148675;28;20324;-72
2023/04/15 15:35:06;;;;;;;4.47;4.00;;;;;;;17.30;45.20;101302.97;6156246;28;20238;-74
2023/04/15 15:38:28;;;;;;;4.72;4.32;;;;;;;17.38;44.35;101301.97;6162077;28;20241;-76